Weather at Williamson Sodus Airport

Public forecast

Using degrees Fahrenheit for public forecast. Weather courtesy of forecast.io.

Closest aviation weather report (METAR) to Williamson Sodus Airport

Closest report is Greater Rochester International Airport, 25.1 nm (46.5 km) WSW. Retrieved 2020/12/01 10:54 UTC (31 minutes ago):

KROC 011054Z 24008KT 8SM -RA BKN005 OVC012 03/03 A2942 RMK AO2 CIG 003V009 SLP967 P0002 T00330033

Closest aviation forecast (TAF) to Williamson Sodus Airport

Closest forecast is Greater Rochester International Airport, 25.1 nm (46.5 km) WSW. Retrieved 2020/12/01 06:15 UTC (5 hours ago):

TAF KROC 010613Z 0106/0206 33007KT 3SM -DZ BR OVC005 FM011100 22005KT 6SM BR VCSH OVC007 FM011200 22005KT 6SM BR VCSH OVC012 FM011900 22010G16KT P6SM VCSH OVC020 FM012200 23010G18KT 2SM BR VCSH BKN012